Time;durP1;ratioP1;P1;durP2;ratioP2;P2;SDS_P1;SDS_P2;PMS_P1;PMS_P2;Temp;Humidity;BMP_temperature;BMP_pressure;BME280_temperature;BME280_humidity;BME280_pressure;Samples;Min_cycle;Max_cycle;Signal;HPM_P1;HPM_P2
2021/11/05 06:52:22;;;;;;;8.77;7.25;;;;;;;19.15;67.04;95017.44;5065268;27;20417;-74
2021/11/05 06:54:47;;;;;;;11.07;6.03;;;;;;;19.60;66.14;95017.06;5064673;28;20028;-74
2021/11/05 06:57:13;;;;;;;7.68;6.03;;;;;;;19.74;64.55;95023.72;5039675;28;20029;-74
2021/11/05 06:59:38;;;;;;;9.77;6.45;;;;;;;18.53;68.58;95023.81;5046669;28;20494;-74
2021/11/05 07:02:04;;;;;;;7.60;6.68;;;;;;;17.95;72.29;95017.28;5013589;28;20027;-74
2021/11/05 07:04:29;;;;;;;7.18;6.45;;;;;;;17.78;72.98;95023.06;5045210;28;20494;-75
2021/11/05 07:06:56;;;;;;;8.05;6.47;;;;;;;18.14;72.24;95014.47;5048196;28;20017;-74
2021/11/05 07:09:23;;;;;;;7.50;6.05;;;;;;;18.67;70.71;95027.09;5032407;28;20877;-74
2021/11/05 07:11:48;;;;;;;9.48;5.88;;;;;;;18.34;71.76;95017.72;5040356;28;20032;-74
2021/11/05 07:14:15;;;;;;;11.15;6.80;;;;;;;17.87;72.88;95011.28;5051004;28;20026;-74
2021/11/05 07:16:41;;;;;;;8.43;6.50;;;;;;;18.26;72.78;95009.34;5009283;28;20025;-74
2021/11/05 07:19:08;;;;;;;9.88;6.40;;;;;;;18.62;71.27;95012.00;5002205;28;20112;-73
2021/11/05 07:21:33;;;;;;;7.32;6.47;;;;;;;18.16;71.96;95009.03;5028060;28;20032;-76
2021/11/05 07:24:03;;;;;;;11.45;6.68;;;;;;;18.98;70.46;95008.56;5024042;28;20079;-75
2021/11/05 07:26:34;;;;;;;10.52;7.28;;;;;;;17.77;74.15;95005.72;5017863;28;20117;-74
2021/11/05 07:29:03;;;;;;;10.77;7.03;;;;;;;18.42;72.79;95001.72;5022768;28;20075;-74
2021/11/05 07:31:29;;;;;;;;;;;;;;;19.65;66.13;95004.84;5017107;28;20025;-74
2021/11/05 07:33:54;;;;;;;7.53;6.55;;;;;;;21.03;63.36;94992.69;5054151;28;19912;-74
2021/11/05 07:36:20;;;;;;;7.00;6.03;;;;;;;21.76;58.55;94993.75;5046544;28;20026;-73
2021/11/05 07:38:45;;;;;;;10.02;6.43;;;;;;;21.95;56.86;94995.16;5036313;28;20394;-73
2021/11/05 07:41:11;;;;;;;7.25;6.50;;;;;;;21.95;57.95;94993.31;5004786;28;20038;-73
2021/11/05 07:43:37;;;;;;;13.63;6.80;;;;;;;21.10;59.25;95003.09;5006677;28;20025;-74
2021/11/05 07:46:02;;;;;;;9.55;6.78;;;;;;;19.55;64.14;94998.56;5009831;28;20064;-74
2021/11/05 07:48:28;;;;;;;8.02;7.22;;;;;;;19.58;67.07;95013.88;5016131;28;20045;-74
2021/11/05 07:50:53;;;;;;;9.70;7.63;;;;;;;19.79;64.43;95006.25;5014086;28;20552;-74
2021/11/05 07:53:19;;;;;;;10.90;7.72;;;;;;;20.95;61.43;95000.16;4998774;28;20440;-73
2021/11/05 07:55:46;;;;;;;11.88;6.82;;;;;;;21.58;58.37;94997.41;5023446;28;20025;-74
2021/11/05 07:58:12;;;;;;;10.20;6.72;;;;;;;21.49;59.09;94997.00;5005114;28;20034;-74
2021/11/05 08:00:37;;;;;;;8.40;6.63;;;;;;;21.08;59.97;94994.63;5042641;28;20040;-74
2021/11/05 08:03:02;;;;;;;9.00;6.68;;;;;;;20.85;61.62;94999.94;5031101;28;20473;-74
2021/11/05 08:05:28;;;;;;;9.05;6.45;;;;;;;20.99;59.93;94996.84;5036044;28;20033;-74
2021/11/05 08:07:53;;;;;;;12.25;6.25;;;;;;;20.85;59.75;94984.16;5027662;28;20470;-74
2021/11/05 08:10:22;;;;;;;10.10;7.25;;;;;;;20.06;61.58;94979.53;4998664;28;20740;-74
2021/11/05 08:12:51;;;;;;;9.98;6.60;;;;;;;20.25;61.32;94994.97;5016237;28;20032;-74
2021/11/05 08:15:18;;;;;;;10.77;6.38;;;;;;;20.28;61.81;94991.91;5006698;28;20030;-74
2021/11/05 08:17:44;;;;;;;9.35;6.30;;;;;;;21.83;57.04;94986.50;5000141;28;20108;-74
2021/11/05 08:20:10;;;;;;;8.02;6.72;;;;;;;20.69;58.95;94982.25;5014939;28;20033;-74
2021/11/05 08:22:36;;;;;;;6.90;5.93;;;;;;;23.60;51.92;94979.84;5032332;28;20029;-74
2021/11/05 08:25:01;;;;;;;7.75;5.78;;;;;;;21.80;55.20;94981.69;5029339;28;20032;-74
2021/11/05 08:27:27;;;;;;;7.32;5.85;;;;;;;22.24;54.08;94972.91;5047531;28;20068;-74
2021/11/05 08:29:53;;;;;;;11.18;6.13;;;;;;;23.51;52.31;94972.63;5048763;28;20078;-74
2021/11/05 08:32:18;;;;;;;9.20;6.07;;;;;;;22.63;52.89;94971.06;5046893;28;20025;-74
2021/11/05 08:34:44;;;;;;;7.00;6.30;;;;;;;21.90;55.39;94979.22;5030935;28;20029;-74
2021/11/05 08:37:10;;;;;;;8.77;6.05;;;;;;;22.62;52.77;94992.44;5013091;28;20574;-73
2021/11/05 08:39:37;;;;;;;9.73;6.97;;;;;;;21.45;54.87;94984.50;5031220;28;20542;-73
2021/11/05 08:42:03;;;;;;;8.65;6.07;;;;;;;21.52;55.01;94987.81;5010973;28;20129;-74
2021/11/05 08:44:30;;;;;;;6.85;5.75;;;;;;;21.59;54.81;94993.72;5016916;28;20036;-74
2021/11/05 08:46:56;;;;;;;9.98;7.00;;;;;;;20.68;58.51;94986.69;5046774;28;20021;-74
2021/11/05 08:49:24;;;;;;;9.00;7.05;;;;;;;21.44;56.16;94990.84;5032310;28;20152;-74
2021/11/05 08:51:49;;;;;;;11.52;7.88;;;;;;;21.44;55.90;94990.84;5010238;28;20049;-75
2021/11/05 08:54:14;;;;;;;8.48;6.60;;;;;;;22.83;51.11;94991.69;5021939;28;20032;-75
2021/11/05 08:56:40;;;;;;;9.15;6.15;;;;;;;23.94;50.16;94998.16;5007384;28;20134;-75
2021/11/05 08:59:06;;;;;;;10.48;7.13;;;;;;;23.63;50.19;94998.94;5004345;28;20029;-73
2021/11/05 09:01:31;;;;;;;9.50;6.28;;;;;;;24.19;49.36;95006.31;5027623;28;20638;-75
2021/11/05 09:03:57;;;;;;;7.03;6.25;;;;;;;25.20;47.07;95003.44;5024946;28;20026;-74
2021/11/05 09:06:23;;;;;;;10.65;6.60;;;;;;;26.02;44.92;94993.53;5010376;28;20427;-73
2021/11/05 09:08:51;;;;;;;7.78;5.68;;;;;;;24.48;47.76;94991.69;5009644;28;20501;-74
2021/11/05 09:11:16;;;;;;;6.65;5.95;;;;;;;26.15;44.20;95000.16;5010212;28;20025;-74
2021/11/05 09:13:42;;;;;;;11.18;6.10;;;;;;;26.41;43.92;94993.00;5026333;28;20036;-74
2021/11/05 09:16:07;;;;;;;10.68;6.07;;;;;;;23.47;49.49;94993.47;5025640;28;20052;-74
2021/11/05 09:18:33;;;;;;;9.88;6.35;;;;;;;24.16;48.09;95006.81;5010351;28;20033;-74
2021/11/05 09:21:00;;;;;;;12.05;5.97;;;;;;;24.85;47.58;94996.16;5025771;28;20026;-74
2021/11/05 09:23:26;;;;;;;9.07;6.05;;;;;;;23.83;47.80;95001.75;5010897;28;20030;-75
2021/11/05 09:25:52;;;;;;;6.97;5.18;;;;;;;24.29;46.83;94995.81;5025932;28;20121;-75
2021/11/05 09:28:17;;;;;;;6.93;5.90;;;;;;;22.82;50.84;94975.03;5009245;28;20453;-75
2021/11/05 09:30:42;;;;;;;6.10;5.18;;;;;;;24.22;47.40;94975.88;4994039;28;20521;-75
2021/11/05 09:33:08;;;;;;;8.82;5.03;;;;;;;24.49;46.96;94971.31;4993239;28;20025;-74
2021/11/05 09:35:35;;;;;;;7.97;5.18;;;;;;;23.97;48.28;94976.47;5026004;28;20041;-75
2021/11/05 09:38:01;;;;;;;11.05;5.60;;;;;;;23.34;48.30;94962.13;5008418;28;20037;-76
2021/11/05 09:40:26;;;;;;;10.05;5.22;;;;;;;24.01;47.48;94977.56;5026868;28;20025;-75
2021/11/05 09:42:53;;;;;;;11.73;4.95;;;;;;;23.66;48.16;94967.50;5008114;28;20076;-74
2021/11/05 09:45:19;;;;;;;8.50;5.38;;;;;;;25.25;46.42;94967.13;5010058;28;20029;-75
2021/11/05 09:47:44;;;;;;;12.77;5.50;;;;;;;25.26;45.60;94958.13;5027040;28;20072;-74
2021/11/05 09:50:11;;;;;;;6.00;5.38;;;;;;;25.98;45.02;94965.91;5009193;28;20037;-74
2021/11/05 09:52:37;;;;;;;10.73;8.48;;;;;;;25.27;46.26;94965.00;5027156;28;20108;-74
2021/11/05 09:55:03;;;;;;;6.03;5.32;;;;;;;25.04;46.08;94960.19;5025367;28;20506;-75
2021/11/05 09:57:28;;;;;;;13.23;5.63;;;;;;;23.77;48.45;94966.50;5026860;28;20116;-74
2021/11/05 09:59:56;;;;;;;8.82;5.30;;;;;;;25.79;44.46;94950.78;5025434;28;20060;-74
2021/11/05 10:02:22;;;;;;;8.52;5.10;;;;;;;23.62;48.52;94976.97;5026877;28;20025;-75
2021/11/05 10:04:48;;;;;;;7.10;5.45;;;;;;;22.99;50.23;94967.81;5025378;28;20528;-74
2021/11/05 10:07:13;;;;;;;10.60;5.40;;;;;;;22.77;50.73;94951.19;5026331;28;20026;-75
2021/11/05 10:09:40;;;;;;;15.50;6.10;;;;;;;22.77;50.75;94961.75;5009555;28;20029;-74
2021/11/05 10:12:16;;;;;;;11.98;5.00;;;;;;;23.07;50.27;94953.38;5007984;28;20525;-74
2021/11/05 10:14:43;;;;;;;5.72;5.05;;;;;;;23.11;50.39;94946.56;4994413;28;20026;-74
2021/11/05 10:17:13;;;;;;;8.65;5.13;;;;;;;22.48;50.73;94947.88;5009274;28;20859;-78
2021/11/05 10:20:06;;;;;;;8.77;5.57;;;;;;;22.91;50.81;94947.13;5011005;28;20057;-75
2021/11/05 10:22:52;;;;;;;9.38;5.35;;;;;;;22.62;50.91;94943.06;5010821;28;20522;-74
2021/11/05 10:25:30;;;;;;;9.35;4.70;;;;;;;22.96;49.88;94949.81;5025996;28;20533;-76
2021/11/05 10:28:15;;;;;;;10.20;5.22;;;;;;;23.10;50.10;94950.25;5025037;28;20506;-75
2021/11/05 10:30:44;;;;;;;25.38;11.02;;;;;;;22.83;50.00;94944.91;5014147;28;20029;-78
2021/11/05 10:33:16;;;;;;;8.17;4.80;;;;;;;23.19;50.13;94934.72;5013957;28;20034;-75
2021/11/05 10:35:43;;;;;;;12.35;7.50;;;;;;;23.14;50.16;94934.69;4989443;28;20084;-75
2021/11/05 10:38:11;;;;;;;15.32;7.25;;;;;;;23.44;50.06;94946.38;5003662;28;20044;-75
2021/11/05 10:40:38;;;;;;;9.75;5.05;;;;;;;23.35;49.84;94947.84;5001452;28;20038;-75
2021/11/05 10:43:04;;;;;;;7.97;4.45;;;;;;;23.19;50.42;94953.22;4985390;28;20193;-75
2021/11/05 10:45:30;;;;;;;13.70;7.43;;;;;;;22.99;50.56;94936.13;5007254;28;20034;-75
2021/11/05 10:47:57;;;;;;;13.25;5.45;;;;;;;23.33;50.21;94949.16;5008059;28;20036;-75
2021/11/05 10:50:41;;;;;;;10.65;6.15;;;;;;;22.99;50.79;94951.16;5038978;28;20041;-75
2021/11/05 10:53:14;;;;;;;10.45;5.10;;;;;;;23.05;50.86;94950.19;5034163;28;20033;-76
2021/11/05 10:55:55;;;;;;;9.88;5.88;;;;;;;22.49;51.89;94949.50;4996999;28;20128;-76
2021/11/05 10:58:25;;;;;;;8.50;5.68;;;;;;;22.63;51.66;94957.06;5021056;28;20112;-75
2021/11/05 11:00:55;;;;;;;9.10;5.07;;;;;;;22.65;52.13;94957.59;5019788;28;20029;-76
2021/11/05 11:03:26;;;;;;;11.20;4.93;;;;;;;22.85;51.66;94955.25;4974290;28;20022;-74
2021/11/05 11:05:54;;;;;;;7.63;4.85;;;;;;;22.97;51.31;94958.56;4980600;28;20573;-75
2021/11/05 11:08:32;;;;;;;7.80;4.90;;;;;;;23.04;49.88;94945.97;4991425;28;20087;-76
2021/11/05 11:11:36;;;;;;;10.00;5.45;;;;;;;22.74;51.12;94950.88;5009449;28;20843;-75
2021/11/05 11:14:03;;;;;;;8.50;4.68;;;;;;;23.56;49.77;94947.03;5023207;28;20601;-75
2021/11/05 11:16:42;;;;;;;9.85;5.85;;;;;;;22.73;51.33;94936.91;5025897;28;20030;-76
2021/11/05 11:19:13;;;;;;;13.10;5.75;;;;;;;22.77;51.38;94932.69;5031050;28;20411;-75
2021/11/05 11:21:51;;;;;;;19.10;5.78;;;;;;;23.28;49.88;94933.25;5025712;28;20587;-75
2021/11/05 11:24:29;;;;;;;14.20;5.50;;;;;;;23.74;49.07;94945.06;4994971;28;20026;-75
2021/11/05 11:26:54;;;;;;;8.30;5.28;;;;;;;23.40;50.15;94926.00;5028639;28;20033;-75
2021/11/05 11:29:22;;;;;;;10.85;6.43;;;;;;;23.22;49.90;94928.94;5009179;28;20029;-76
2021/11/05 11:31:48;;;;;;;11.98;5.72;;;;;;;23.39;50.13;94927.81;4993337;28;20030;-75
2021/11/05 11:34:14;;;;;;;12.98;5.95;;;;;;;23.47;50.08;94919.44;5007316;28;20032;-75
2021/11/05 11:36:50;;;;;;;13.02;5.13;;;;;;;23.55;49.58;94913.69;4993282;28;20013;-76
2021/11/05 11:39:18;;;;;;;9.00;5.70;;;;;;;23.60;49.74;94907.63;5000831;28;20064;-76
2021/11/05 11:41:44;;;;;;;8.45;5.00;;;;;;;23.83;48.65;94907.28;5033137;28;20040;-76
2021/11/05 11:44:12;;;;;;;10.80;5.38;;;;;;;23.54;49.04;94912.09;5031536;28;20174;-76
2021/11/05 11:46:57;;;;;;;9.20;5.30;;;;;;;23.77;48.47;94907.50;5030671;28;20090;-75
2021/11/05 11:49:41;;;;;;;9.38;5.40;;;;;;;23.48;49.00;94886.66;5024099;28;20037;-75
2021/11/05 11:52:08;;;;;;;11.23;4.93;;;;;;;23.56;48.79;94893.34;5018260;28;20057;-75
2021/11/05 11:54:36;;;;;;;12.00;6.05;;;;;;;23.56;48.61;94883.56;5028914;28;20034;-76
2021/11/05 11:57:12;;;;;;;12.60;5.67;;;;;;;23.78;48.03;94886.09;5002105;28;20513;-75
2021/11/05 11:59:39;;;;;;;9.85;5.20;;;;;;;23.95;47.59;94878.00;5011404;28;20320;-76
2021/11/05 12:02:37;;;;;;;10.15;5.85;;;;;;;23.41;48.39;94867.56;5002767;28;20033;-77
2021/11/05 12:05:19;;;;;;;9.55;5.88;;;;;;;23.42;47.80;94848.00;5023361;28;20025;-75
2021/11/05 12:08:26;;;;;;;5.38;4.88;;;;;;;23.47;48.03;94866.53;4999162;28;20038;-74
2021/11/05 12:11:01;;;;;;;13.63;4.90;;;;;;;23.49;47.56;94851.25;5022590;28;20022;-75
2021/11/05 12:13:36;;;;;;;9.52;4.82;;;;;;;23.81;47.19;94850.41;5016215;28;20335;-76
2021/11/05 12:16:27;;;;;;;13.63;5.30;;;;;;;23.65;48.36;94867.22;5029401;28;20096;-75
2021/11/05 12:19:03;;;;;;;13.05;4.75;;;;;;;23.75;47.95;94856.72;5025964;28;20034;-76
2021/11/05 12:21:30;;;;;;;10.63;5.00;;;;;;;23.58;47.71;94854.22;5027938;28;20047;-75
2021/11/05 12:24:14;;;;;;;11.93;5.55;;;;;;;23.55;47.80;94858.16;5010703;28;20032;-76
2021/11/05 12:26:41;;;;;;;8.55;4.97;;;;;;;23.39;47.50;94858.25;5007475;28;20029;-76
2021/11/05 12:29:06;;;;;;;10.35;5.25;;;;;;;22.96;48.30;94838.84;4992340;28;20727;-77
2021/11/05 12:31:35;;;;;;;10.40;5.40;;;;;;;23.20;48.89;94855.19;4999750;28;20037;-76
2021/11/05 12:34:17;;;;;;;14.15;5.50;;;;;;;23.36;48.57;94853.47;5003221;28;20055;-75
2021/11/05 12:36:46;;;;;;;9.95;5.45;;;;;;;23.22;48.36;94855.72;5023259;28;20599;-76
2021/11/05 12:39:12;;;;;;;12.95;5.90;;;;;;;23.48;48.30;94844.34;5010024;28;20415;-76
2021/11/05 12:42:00;;;;;;;9.98;5.82;;;;;;;23.07;48.89;94852.97;5022373;28;20082;-76
2021/11/05 12:44:28;;;;;;;12.40;5.93;;;;;;;23.01;49.44;94846.03;5020915;28;20501;-75
2021/11/05 12:46:54;;;;;;;9.57;7.38;;;;;;;22.96;49.90;94854.69;5017904;28;20029;-76
2021/11/05 12:49:21;;;;;;;12.45;7.45;;;;;;;22.83;49.86;94844.53;4993338;28;20037;-76
2021/11/05 12:51:48;;;;;;;11.65;6.13;;;;;;;22.84;48.55;94847.97;4996097;28;20137;-77
2021/11/05 12:54:20;;;;;;;16.90;5.78;;;;;;;22.74;49.61;94855.78;5015206;28;20470;-81
2021/11/05 12:56:50;;;;;;;13.32;6.13;;;;;;;22.94;49.92;94853.38;5029623;28;20065;-76
2021/11/05 12:59:16;;;;;;;8.88;5.97;;;;;;;22.92;49.92;94845.69;5030653;28;20021;-76
2021/11/05 13:01:42;;;;;;;11.43;6.55;;;;;;;23.00;49.78;94845.22;5034586;28;20095;-75
2021/11/05 13:04:12;;;;;;;12.65;6.45;;;;;;;22.95;49.12;94836.47;5026050;28;20461;-76
2021/11/05 13:06:43;;;;;;;13.30;6.78;;;;;;;23.09;49.45;94850.84;5027149;28;20036;-76
2021/11/05 13:09:29;;;;;;;14.43;6.32;;;;;;;23.12;48.98;94849.59;4995299;28;20422;-77
2021/11/05 13:12:00;;;;;;;12.35;6.80;;;;;;;23.04;48.65;94842.91;5037154;28;20025;-76
2021/11/05 13:14:53;;;;;;;15.48;6.18;;;;;;;23.30;48.90;94854.50;4989109;28;20124;-76
2021/11/05 13:17:20;;;;;;;13.77;6.25;;;;;;;23.20;48.18;94838.53;5026739;28;20039;-77
2021/11/05 13:19:52;;;;;;;12.73;6.38;;;;;;;23.36;48.36;94849.00;5015591;28;20040;-75
2021/11/05 13:22:18;;;;;;;12.02;5.75;;;;;;;23.37;48.66;94845.31;5006726;28;20022;-76
2021/11/05 13:24:44;;;;;;;13.40;6.30;;;;;;;23.40;47.55;94858.06;5022375;28;20029;-76
2021/11/05 13:27:09;;;;;;;13.38;6.13;;;;;;;23.40;48.20;94841.38;4985332;28;20029;-77
2021/11/05 13:29:35;;;;;;;16.88;5.80;;;;;;;23.47;47.39;94818.94;5002826;28;20026;-76
2021/11/05 13:32:10;;;;;;;14.90;6.22;;;;;;;23.59;46.53;94832.00;4992063;28;20029;-76
2021/11/05 13:34:36;;;;;;;8.63;5.82;;;;;;;23.74;46.34;94833.94;5023102;28;20029;-75
2021/11/05 13:37:02;;;;;;;11.40;5.70;;;;;;;23.60;46.76;94828.28;5008161;28;20034;-75
2021/11/05 13:39:27;;;;;;;12.73;6.43;;;;;;;23.53;46.41;94831.19;5025256;28;20075;-76
2021/11/05 13:41:53;;;;;;;11.10;5.03;;;;;;;23.53;46.09;94819.81;5027088;28;20039;-77
2021/11/05 13:44:18;;;;;;;13.15;5.40;;;;;;;23.39;46.29;94834.47;5005515;28;20583;-76
2021/11/05 13:46:44;;;;;;;7.88;5.22;;;;;;;23.42;46.14;94820.75;5026165;28;20434;-75
2021/11/05 13:49:13;;;;;;;16.35;5.70;;;;;;;23.44;45.15;94827.38;5008261;28;20017;-75
2021/11/05 13:51:40;;;;;;;13.35;5.45;;;;;;;23.31;45.82;94827.78;5008720;28;20111;-76
2021/11/05 13:54:06;;;;;;;10.07;4.43;;;;;;;23.45;45.31;94841.41;5002930;28;20036;-74
2021/11/05 13:56:34;;;;;;;17.00;5.40;;;;;;;23.46;45.14;94835.06;5006615;28;20073;-75
2021/11/05 13:59:02;;;;;;;11.57;5.28;;;;;;;23.33;46.11;94833.63;4994148;28;20041;-76
2021/11/05 14:01:30;;;;;;;12.60;5.40;;;;;;;23.26;46.62;94835.69;4990892;28;20043;-75
2021/11/05 14:03:58;;;;;;;15.00;5.43;;;;;;;23.15;47.33;94835.88;5012214;28;20037;-73
2021/11/05 14:06:23;;;;;;;10.13;5.20;;;;;;;23.05;47.72;94836.56;5003787;28;20041;-75
2021/11/05 14:08:54;;;;;;;8.40;5.85;;;;;;;22.99;47.53;94833.06;5005613;28;20033;-75
2021/11/05 14:11:27;;;;;;;11.80;5.20;;;;;;;22.96;47.83;94845.97;4977146;28;20036;-75
2021/11/05 14:13:52;;;;;;;9.32;4.82;;;;;;;22.73;48.12;94843.66;5025051;28;20040;-75
2021/11/05 14:16:18;;;;;;;19.80;5.68;;;;;;;22.72;48.54;94842.84;5003079;28;20461;-77
2021/11/05 14:18:43;;;;;;;7.53;4.45;;;;;;;22.49;49.08;94843.88;4998357;28;20456;-76
2021/11/05 14:21:24;;;;;;;9.70;5.20;;;;;;;22.49;49.51;94851.00;5010030;28;20045;-75
2021/11/05 14:23:51;;;;;;;9.15;5.00;;;;;;;22.47;49.27;94846.00;5007801;28;20022;-75
2021/11/05 14:26:24;;;;;;;10.55;5.25;;;;;;;22.36;49.73;94849.53;4992212;28;20033;-75
2021/11/05 14:29:23;;;;;;;9.07;4.70;;;;;;;22.18;50.20;94846.41;5017980;28;20076;-75
2021/11/05 14:31:48;;;;;;;11.23;4.90;;;;;;;21.97;50.65;94850.63;5011399;28;20470;-74
2021/11/05 14:34:14;;;;;;;14.23;4.05;;;;;;;21.86;50.44;94846.22;5025909;28;20120;-75
2021/11/05 14:36:39;;;;;;;9.10;4.60;;;;;;;21.81;50.48;94846.94;4987969;28;20507;-75
2021/11/05 14:39:05;;;;;;;9.38;4.30;;;;;;;21.78;50.09;94850.06;5007314;28;20112;-75
2021/11/05 14:41:30;;;;;;;11.80;4.93;;;;;;;21.86;49.56;94859.41;5007792;28;20029;-75
2021/11/05 14:44:00;;;;;;;13.63;4.28;;;;;;;21.88;49.45;94850.22;4990970;28;20048;-75
2021/11/05 14:46:26;;;;;;;7.60;4.00;;;;;;;21.77;49.84;94861.66;4991635;28;20430;-75
2021/11/05 14:48:51;;;;;;;10.50;4.00;;;;;;;21.79;49.24;94870.13;5003817;28;20053;-75
2021/11/05 14:51:18;;;;;;;10.35;4.10;;;;;;;21.75;49.63;94862.94;5009749;28;20088;-75
2021/11/05 14:53:44;;;;;;;10.98;4.07;;;;;;;21.57;50.47;94868.47;5006125;28;20044;-75
2021/11/05 14:56:20;;;;;;;14.43;4.35;;;;;;;21.55;50.42;94871.34;5014492;28;20029;-76
2021/11/05 14:58:46;;;;;;;9.95;4.25;;;;;;;21.52;50.70;94883.16;5032378;28;20037;-75
2021/11/05 15:01:19;;;;;;;10.57;4.60;;;;;;;21.34;51.18;94886.03;5009613;28;20036;-74
2021/11/05 15:03:58;;;;;;;9.35;4.63;;;;;;;21.20;51.53;94879.47;5007544;28;20747;-74
2021/11/05 15:06:31;;;;;;;13.75;5.05;;;;;;;21.22;51.69;94889.78;4992516;28;20477;-74
2021/11/05 15:08:58;;;;;;;14.77;6.57;;;;;;;20.75;53.03;94894.44;5009942;28;20038;-75
2021/11/05 15:11:24;;;;;;;12.60;5.00;;;;;;;20.59;53.79;94901.22;5007598;28;20057;-74
2021/11/05 15:13:50;;;;;;;11.15;6.07;;;;;;;20.70;53.48;94899.59;4995252;28;20024;-74
2021/11/05 15:16:18;;;;;;;15.18;6.38;;;;;;;20.49;54.26;94906.28;5027198;28;20032;-76
2021/11/05 15:18:43;;;;;;;17.38;6.00;;;;;;;20.30;54.56;94900.41;5008391;28;20030;-76
2021/11/05 15:21:10;;;;;;;18.02;8.52;;;;;;;20.21;55.01;94903.56;4994604;28;20033;-74
2021/11/05 15:23:36;;;;;;;16.45;5.57;;;;;;;19.89;56.06;94909.22;5024599;28;20025;-74
2021/11/05 15:26:04;;;;;;;13.25;5.35;;;;;;;19.84;56.32;94914.34;4995003;28;20028;-73
2021/11/05 15:28:30;;;;;;;12.80;5.10;;;;;;;19.58;56.93;94921.88;5024147;28;20510;-73
2021/11/05 15:30:56;;;;;;;13.48;5.70;;;;;;;19.20;58.29;94925.66;5029402;28;20065;-73
2021/11/05 15:33:24;;;;;;;11.38;5.22;;;;;;;18.55;61.41;94939.66;5010305;28;20107;-73
2021/11/05 15:35:49;;;;;;;12.88;6.40;;;;;;;18.25;62.88;94940.34;5012298;28;20025;-74
2021/11/05 15:38:16;;;;;;;14.85;5.30;;;;;;;18.04;63.90;94947.84;4994331;28;20081;-73
2021/11/05 15:40:43;;;;;;;11.57;5.63;;;;;;;18.52;60.83;94950.59;4994428;28;20033;-74
2021/11/05 15:43:08;;;;;;;15.65;5.50;;;;;;;19.43;56.70;94953.84;5012615;28;20033;-72
2021/11/05 15:45:34;;;;;;;14.25;4.55;;;;;;;19.59;55.23;94955.00;5010579;28;20032;-75
2021/11/05 15:48:00;;;;;;;11.02;5.03;;;;;;;19.69;54.94;94960.50;5027193;28;20045;-76
2021/11/05 15:50:28;;;;;;;16.85;5.50;;;;;;;19.30;56.35;94952.16;5013282;28;20056;-75
2021/11/05 15:52:54;;;;;;;13.57;5.05;;;;;;;18.91;57.68;94944.88;4997896;28;20486;-75
2021/11/05 15:55:20;;;;;;;17.40;6.57;;;;;;;18.68;58.76;94952.63;4995460;28;20029;-75
2021/11/05 15:57:46;;;;;;;20.55;6.38;;;;;;;18.41;60.98;94959.94;4999161;28;20482;-75
2021/11/05 16:00:14;;;;;;;17.35;8.30;;;;;;;18.03;62.78;94965.38;4999698;28;20096;-75
2021/11/05 16:02:39;;;;;;;21.58;7.13;;;;;;;17.57;64.56;94959.72;4992257;28;20029;-75
2021/11/05 16:05:07;;;;;;;22.27;6.20;;;;;;;17.41;65.18;94963.63;5008028;28;20025;-76
2021/11/05 16:07:33;;;;;;;19.60;6.30;;;;;;;17.13;65.98;94956.19;4993906;28;20033;-76
2021/11/05 16:09:58;;;;;;;22.02;8.82;;;;;;;17.21;65.50;94965.59;5011982;28;20057;-75
2021/11/05 16:12:23;;;;;;;26.58;10.20;;;;;;;18.10;61.32;94989.72;5004744;28;20041;-75
2021/11/05 16:14:49;;;;;;;18.05;7.47;;;;;;;18.33;59.67;94992.50;5017453;28;20024;-75
2021/11/05 16:17:15;;;;;;;18.17;6.97;;;;;;;18.64;58.25;94994.25;4989565;28;20038;-75
2021/11/05 16:19:40;;;;;;;21.25;6.45;;;;;;;18.48;58.71;94991.34;4981772;28;20028;-75
2021/11/05 16:22:06;;;;;;;14.80;5.85;;;;;;;18.39;58.74;95001.34;5002362;28;20026;-74
2021/11/05 16:24:33;;;;;;;19.70;8.38;;;;;;;17.73;63.43;95003.72;4992611;28;20025;-75
2021/11/05 16:26:59;;;;;;;17.92;7.03;;;;;;;17.71;62.81;95005.78;5018471;28;20491;-75
2021/11/05 16:29:24;;;;;;;22.92;7.88;;;;;;;17.78;62.41;95011.78;5007805;28;20036;-75
2021/11/05 16:31:50;;;;;;;18.23;7.30;;;;;;;17.58;63.13;95017.16;5009194;28;20030;-75
2021/11/05 16:34:16;;;;;;;16.08;7.00;;;;;;;17.87;61.33;95013.09;5001448;28;20026;-76
2021/11/05 16:36:41;;;;;;;17.25;6.43;;;;;;;17.80;61.25;95013.16;5018590;28;20028;-76
2021/11/05 16:39:07;;;;;;;23.90;5.97;;;;;;;17.61;61.58;95015.91;5003165;28;20045;-75
2021/11/05 16:41:33;;;;;;;17.17;6.30;;;;;;;17.66;61.26;95018.72;5003678;28;20037;-74
2021/11/05 16:43:59;;;;;;;15.43;6.13;;;;;;;16.96;65.34;95032.75;4985092;28;20022;-75
2021/11/05 16:46:25;;;;;;;11.73;5.20;;;;;;;16.63;67.03;95045.97;4986689;28;20037;-75
2021/11/05 16:48:51;;;;;;;15.50;5.88;;;;;;;16.72;66.99;95042.13;4982300;28;20041;-76
2021/11/05 16:51:20;;;;;;;13.48;4.47;;;;;;;17.42;63.34;95043.00;5010451;28;20503;-76
2021/11/05 16:53:47;;;;;;;10.35;4.45;;;;;;;17.89;60.81;95042.50;4986681;28;20113;-76
2021/11/05 16:56:12;;;;;;;16.23;4.20;;;;;;;17.83;60.70;95043.38;5005197;28;20080;-76
2021/11/05 16:58:41;;;;;;;16.48;4.75;;;;;;;17.96;59.96;95043.28;5000615;28;20042;-76
2021/11/05 17:01:07;;;;;;;15.87;5.93;;;;;;;17.59;62.16;95049.41;4989625;28;20483;-77
2021/11/05 17:03:33;;;;;;;17.20;5.32;;;;;;;17.25;64.00;95061.81;4992537;28;20029;-76
2021/11/05 17:05:59;;;;;;;12.82;5.25;;;;;;;17.12;65.22;95067.13;5000531;28;20018;-76
2021/11/05 17:08:24;;;;;;;10.88;4.97;;;;;;;16.88;66.02;95057.34;5002188;28;20086;-74
2021/11/05 17:10:50;;;;;;;15.90;4.72;;;;;;;16.68;66.57;95054.00;5006792;28;20029;-75
2021/11/05 17:13:16;;;;;;;20.05;5.10;;;;;;;16.70;66.70;95059.81;5010882;28;20128;-75
2021/11/05 17:15:43;;;;;;;13.85;5.55;;;;;;;16.82;66.70;95069.44;5009353;28;20036;-75
2021/11/05 17:18:09;;;;;;;14.00;6.25;;;;;;;16.93;66.06;95059.34;4990185;28;20025;-75
2021/11/05 17:20:35;;;;;;;11.52;6.03;;;;;;;16.56;67.91;95061.69;5020577;28;20091;-75
2021/11/05 17:23:00;;;;;;;15.00;5.60;;;;;;;16.33;69.61;95072.53;5010778;28;20471;-75
2021/11/05 17:25:26;;;;;;;12.73;5.40;;;;;;;16.23;69.55;95084.41;5009887;28;20545;-74
2021/11/05 17:27:52;;;;;;;13.20;5.85;;;;;;;16.27;69.22;95083.81;4991882;28;20032;-74
2021/11/05 17:30:18;;;;;;;11.60;5.65;;;;;;;16.25;69.82;95092.84;5004254;28;20489;-74
2021/11/05 17:32:44;;;;;;;11.98;5.55;;;;;;;16.17;70.25;95095.66;4982595;28;20060;-74
2021/11/05 17:35:10;;;;;;;14.18;6.13;;;;;;;16.25;69.77;95093.66;5004163;28;20044;-75
2021/11/05 17:37:35;;;;;;;16.35;6.25;;;;;;;16.39;69.45;95106.72;5021751;28;20033;-74
2021/11/05 17:40:01;;;;;;;10.90;5.55;;;;;;;16.01;70.96;95107.31;4985992;28;20513;-76
2021/11/05 17:42:26;;;;;;;10.13;5.80;;;;;;;15.89;71.70;95103.69;4992185;28;20091;-75
2021/11/05 17:44:52;;;;;;;16.70;5.70;;;;;;;15.90;72.15;95101.88;5027010;28;20514;-75
2021/11/05 17:47:17;;;;;;;11.18;5.35;;;;;;;15.94;71.97;95110.94;5026102;28;20026;-75
2021/11/05 17:49:43;;;;;;;12.68;6.55;;;;;;;15.67;73.30;95123.13;5001004;28;20029;-75
2021/11/05 17:52:08;;;;;;;88.43;72.60;;;;;;;15.50;73.73;95111.44;5009411;28;20084;-75
2021/11/05 17:54:34;;;;;;;12.80;8.45;;;;;;;15.32;75.67;95104.94;4991792;28;20554;-75
2021/11/05 17:57:00;;;;;;;21.33;12.98;;;;;;;15.31;76.07;95118.97;5010656;28;20028;-75
2021/11/05 17:59:26;;;;;;;37.55;25.75;;;;;;;15.33;75.18;95118.78;5012180;28;20030;-75
2021/11/05 18:01:51;;;;;;;25.08;17.45;;;;;;;15.57;73.70;95114.91;4991282;28;20018;-75
2021/11/05 18:04:28;;;;;;;14.15;7.20;;;;;;;15.83;73.43;95112.31;5005924;28;20411;-75
2021/11/05 18:06:53;;;;;;;14.38;6.07;;;;;;;16.25;71.94;95111.94;4989005;28;20059;-75
2021/11/05 18:09:19;;;;;;;12.15;6.03;;;;;;;16.07;72.04;95114.38;5001168;28;20046;-76
2021/11/05 18:11:45;;;;;;;9.48;6.38;;;;;;;15.50;74.55;95104.44;5015072;28;20606;-75
2021/11/05 18:14:11;;;;;;;20.13;7.38;;;;;;;15.35;76.18;95105.56;4992753;28;20510;-75
2021/11/05 18:16:39;;;;;;;13.13;6.50;;;;;;;15.53;75.69;95118.88;4992977;28;20482;-75
2021/11/05 18:19:04;;;;;;;10.38;5.85;;;;;;;16.38;72.29;95113.75;5010171;28;20040;-75
2021/11/05 18:21:30;;;;;;;10.25;5.45;;;;;;;17.01;68.05;95109.66;5019274;28;20021;-75
2021/11/05 18:23:56;;;;;;;20.05;5.60;;;;;;;17.03;67.97;95114.66;5008478;28;20032;-75
2021/11/05 18:26:21;;;;;;;11.27;5.63;;;;;;;17.07;67.02;95121.09;4984788;28;20017;-78